createdAt,value
2022-08-22T00:00:38.349Z,17.93
2022-08-22T00:02:46.232Z,18.66
2022-08-22T00:02:56.069Z,19.06
2022-08-22T00:03:50.210Z,17.97
2022-08-22T00:06:25.424Z,17.94
2022-08-22T00:09:15.416Z,17.96
2022-08-22T00:11:50.346Z,17.95
2022-08-22T00:14:31.434Z,17.92
2022-08-22T00:17:21.347Z,17.96
2022-08-22T00:20:20.572Z,17.99
2022-08-22T00:23:12.028Z,17.92
2022-08-22T00:25:59.627Z,17.97
2022-08-22T00:28:57.459Z,18.01
2022-08-22T00:31:33.028Z,18.07
2022-08-22T00:34:22.798Z,18.15
2022-08-22T00:37:08.246Z,18.20
2022-08-22T00:39:56.531Z,18.16
2022-08-22T00:42:49.404Z,18.09
2022-08-22T00:45:26.147Z,18.14
2022-08-22T00:48:12.319Z,18.09
2022-08-22T00:50:58.427Z,18.01
2022-08-22T00:53:51.173Z,17.94
2022-08-22T00:56:35.454Z,17.97
2022-08-22T00:59:17.969Z,17.87
2022-08-22T01:02:07.268Z,17.78
2022-08-22T01:05:00.488Z,17.83
2022-08-22T01:07:52.921Z,17.86
2022-08-22T01:10:33.529Z,17.86
2022-08-22T01:13:29.176Z,17.83
2022-08-22T01:16:17.765Z,17.80
2022-08-22T01:19:00.534Z,17.75
2022-08-22T01:21:51.682Z,17.62
2022-08-22T01:25:22.536Z,17.72
2022-08-22T01:28:13.494Z,17.64
2022-08-22T01:30:44.400Z,17.69
2022-08-22T01:33:57.036Z,17.70
2022-08-22T01:36:31.015Z,17.61
2022-08-22T01:39:21.205Z,17.49
2022-08-22T01:42:19.261Z,17.57
2022-08-22T01:45:06.498Z,17.49
2022-08-22T01:47:36.567Z,17.50
2022-08-22T01:50:29.357Z,17.61
2022-08-22T01:53:23.056Z,17.59
2022-08-22T01:55:54.284Z,17.64
2022-08-22T01:58:27.335Z,17.66
2022-08-22T02:01:10.995Z,17.73
2022-08-22T02:04:00.741Z,17.73
2022-08-22T02:06:35.844Z,17.86
2022-08-22T02:09:38.749Z,17.89
2022-08-22T02:12:42.451Z,17.90
2022-08-22T02:15:39.261Z,17.91
2022-08-22T02:18:09.062Z,17.87
2022-08-22T02:21:14.629Z,17.85
2022-08-22T02:23:58.623Z,17.73
2022-08-22T02:26:50.331Z,17.73
2022-08-22T02:29:33.742Z,17.68
2022-08-22T02:32:29.686Z,17.62
2022-08-22T02:35:12.840Z,17.57
2022-08-22T02:37:55.628Z,17.74
2022-08-22T02:40:35.472Z,17.89
2022-08-22T02:43:04.122Z,17.93
2022-08-22T02:45:35.998Z,17.99
2022-08-22T02:48:26.357Z,18.04
2022-08-22T02:51:21.362Z,18.09
2022-08-22T02:53:55.904Z,18.06
2022-08-22T02:56:31.692Z,18.03
2022-08-22T02:59:24.791Z,18.03
2022-08-22T03:01:55.381Z,17.94
2022-08-22T03:04:32.616Z,17.96
2022-08-22T03:07:21.772Z,17.98
2022-08-22T03:09:50.226Z,18.01
2022-08-22T03:12:33.002Z,18.02
2022-08-22T03:15:10.272Z,17.91
2022-08-22T03:18:06.214Z,17.90
2022-08-22T03:20:50.021Z,17.88
2022-08-22T03:23:34.211Z,17.92
2022-08-22T03:26:07.974Z,17.91
2022-08-22T03:28:52.651Z,17.86
2022-08-22T03:31:31.819Z,17.92
2022-08-22T03:34:22.963Z,17.98
2022-08-22T03:37:17.922Z,18.06
2022-08-22T03:40:02.569Z,18.10
2022-08-22T03:42:33.837Z,18.12
2022-08-22T03:45:20.209Z,18.17
2022-08-22T03:48:20.740Z,18.20
2022-08-22T03:51:03.808Z,18.08
2022-08-22T03:53:37.850Z,17.88
2022-08-22T03:56:20.654Z,17.84
2022-08-22T03:59:09.884Z,17.79
2022-08-22T04:01:57.041Z,17.78
2022-08-22T04:05:07.177Z,17.77
2022-08-22T04:07:56.425Z,17.81
2022-08-22T04:10:51.874Z,17.73
2022-08-22T04:13:46.457Z,17.71
2022-08-22T04:16:45.797Z,17.80
2022-08-22T04:19:36.102Z,17.92
2022-08-22T04:22:34.128Z,18.03
2022-08-22T04:25:23.548Z,18.11
2022-08-22T04:28:06.258Z,18.04
2022-08-22T04:30:44.493Z,18.05
2022-08-22T04:33:56.330Z,18.06
2022-08-22T04:36:42.062Z,18.13
2022-08-22T04:39:21.657Z,18.26
2022-08-22T04:42:33.752Z,18.26
2022-08-22T04:45:17.390Z,18.31
2022-08-22T04:47:47.134Z,18.41
2022-08-22T04:50:45.859Z,18.55
2022-08-22T04:53:38.388Z,18.65
2022-08-22T04:56:30.976Z,18.77
2022-08-22T04:59:04.667Z,18.89
2022-08-22T05:01:44.736Z,18.99
2022-08-22T05:04:44.308Z,19.02
2022-08-22T05:07:27.441Z,18.98
2022-08-22T05:10:11.998Z,19.04
2022-08-22T05:12:48.055Z,19.13
2022-08-22T05:15:38.437Z,19.16
2022-08-22T05:18:20.272Z,19.24
2022-08-22T05:20:51.607Z,19.16
2022-08-22T05:23:28.721Z,19.19
2022-08-22T05:26:01.278Z,19.18
2022-08-22T05:28:50.244Z,19.22
2022-08-22T05:31:30.405Z,19.21
2022-08-22T05:34:11.893Z,19.08
2022-08-22T05:36:57.023Z,19.14
2022-08-22T05:39:28.234Z,19.21
2022-08-22T05:42:00.581Z,19.21
2022-08-22T05:44:36.806Z,19.21
2022-08-22T05:47:23.222Z,19.27
2022-08-22T05:50:06.224Z,19.38
2022-08-22T05:53:06.138Z,19.44
2022-08-22T05:55:51.510Z,19.45
2022-08-22T05:58:34.821Z,19.55
2022-08-22T06:01:30.297Z,19.55
2022-08-22T06:04:23.324Z,19.55
2022-08-22T06:06:51.528Z,19.52
2022-08-22T06:09:24.048Z,19.60
2022-08-22T06:12:20.169Z,19.60
2022-08-22T06:15:16.906Z,19.76
2022-08-22T06:17:55.082Z,19.71
2022-08-22T06:20:32.340Z,19.67
2022-08-22T06:23:03.086Z,19.72
2022-08-22T06:25:39.079Z,19.82
2022-08-22T06:28:12.620Z,19.72
2022-08-22T06:30:45.656Z,19.82
2022-08-22T06:33:19.417Z,19.78
2022-08-22T06:36:09.722Z,19.83
2022-08-22T06:39:12.475Z,19.84
2022-08-22T06:41:57.141Z,19.91
2022-08-22T06:44:30.614Z,19.92
2022-08-22T06:47:02.182Z,19.91
2022-08-22T06:49:35.459Z,19.92
2022-08-22T06:52:09.610Z,19.86
2022-08-22T06:54:43.385Z,19.91
2022-08-22T06:57:40.982Z,20.03
2022-08-22T07:00:15.176Z,20.09
2022-08-22T07:02:48.946Z,20.14
2022-08-22T07:05:28.451Z,20.09
2022-08-22T07:07:57.307Z,20.21
2022-08-22T07:10:26.009Z,20.30
2022-08-22T07:12:56.978Z,20.35
2022-08-22T07:15:34.371Z,20.41
2022-08-22T07:18:09.984Z,20.56
2022-08-22T07:20:45.173Z,20.49
2022-08-22T07:23:35.831Z,20.58
2022-08-22T07:26:40.505Z,20.70
2022-08-22T07:29:31.314Z,20.67
2022-08-22T07:32:19.186Z,20.73
2022-08-22T07:34:53.614Z,20.79
2022-08-22T07:37:37.509Z,20.85
2022-08-22T07:40:24.158Z,20.89
2022-08-22T07:43:14.615Z,20.89
2022-08-22T07:45:52.908Z,20.89
2022-08-22T07:48:38.288Z,20.86
2022-08-22T07:51:18.505Z,20.87
2022-08-22T07:53:57.991Z,20.80
2022-08-22T07:56:38.338Z,20.95
2022-08-22T07:59:13.078Z,20.95
2022-08-22T08:01:53.661Z,21.13
2022-08-22T08:04:26.377Z,21.19
2022-08-22T08:06:58.962Z,21.30
2022-08-22T08:09:32.966Z,21.25
2022-08-22T08:12:05.985Z,21.22
2022-08-22T08:14:38.613Z,21.29
2022-08-22T08:17:19.297Z,21.31
2022-08-22T08:19:48.090Z,21.41
2022-08-22T08:22:19.928Z,21.40
2022-08-22T08:24:49.946Z,21.48
2022-08-22T08:27:42.392Z,21.58
2022-08-22T08:30:15.616Z,21.54
2022-08-22T08:33:12.121Z,21.52
2022-08-22T08:36:03.383Z,21.67
2022-08-22T08:38:42.481Z,21.84
2022-08-22T08:41:29.818Z,22.35
2022-08-22T08:44:36.862Z,22.36
2022-08-22T08:47:14.346Z,22.20
2022-08-22T08:49:58.632Z,22.09
2022-08-22T08:53:01.917Z,22.02
2022-08-22T08:55:53.577Z,21.97
2022-08-22T08:58:40.900Z,21.93
2022-08-22T09:01:33.104Z,21.87
2022-08-22T09:04:22.621Z,21.81
2022-08-22T09:06:54.821Z,22.49
2022-08-22T09:09:57.254Z,23.41
2022-08-22T09:13:00.083Z,23.72
2022-08-22T09:15:39.210Z,23.40
2022-08-22T09:18:13.545Z,23.48
2022-08-22T09:20:51.449Z,23.35
2022-08-22T09:23:41.398Z,23.51
2022-08-22T09:26:11.930Z,23.89
2022-08-22T09:29:04.795Z,24.51
2022-08-22T09:32:13.204Z,25.28
2022-08-22T09:34:53.693Z,25.91
2022-08-22T09:37:35.359Z,25.73
2022-08-22T09:40:56.153Z,25.57
2022-08-22T09:43:44.749Z,25.05
2022-08-22T09:46:32.137Z,24.84
2022-08-22T09:49:17.818Z,24.82
2022-08-22T09:52:15.545Z,24.43
2022-08-22T09:55:16.086Z,24.45
2022-08-22T09:57:54.367Z,24.08
2022-08-22T10:00:55.386Z,24.01
2022-08-22T10:04:22.473Z,23.86
2022-08-22T10:07:12.068Z,23.81
2022-08-22T10:10:10.487Z,23.90
2022-08-22T10:12:52.085Z,23.87
2022-08-22T10:15:41.562Z,23.84
2022-08-22T10:18:24.095Z,23.80
2022-08-22T10:21:16.339Z,23.78
2022-08-22T10:24:03.817Z,23.82
2022-08-22T10:26:51.036Z,23.84
2022-08-22T10:29:44.369Z,23.96
2022-08-22T10:32:38.956Z,23.78
2022-08-22T10:35:21.737Z,23.65
2022-08-22T10:38:14.325Z,23.56
2022-08-22T10:41:01.458Z,23.62
2022-08-22T10:44:11.665Z,23.54
2022-08-22T10:46:54.953Z,23.62
2022-08-22T10:49:34.385Z,23.70
2022-08-22T10:52:14.828Z,23.72
2022-08-22T10:55:17.283Z,23.96
2022-08-22T10:58:06.160Z,23.97
2022-08-22T11:00:59.606Z,24.04
2022-08-22T11:03:49.101Z,24.18
2022-08-22T11:06:44.842Z,24.58
2022-08-22T11:09:36.262Z,24.96
2022-08-22T11:12:41.799Z,25.07
2022-08-22T11:15:58.351Z,25.55
2022-08-22T11:18:35.279Z,25.89
2022-08-22T11:21:20.043Z,25.71
2022-08-22T11:24:30.013Z,25.82
2022-08-22T11:27:38.374Z,25.95
2022-08-22T11:30:18.532Z,25.78
2022-08-22T11:33:02.039Z,25.57
2022-08-22T11:36:07.160Z,25.49
2022-08-22T11:38:57.444Z,25.89
2022-08-22T11:41:36.000Z,25.58
2022-08-22T11:44:21.678Z,25.53
2022-08-22T11:46:58.304Z,25.12
2022-08-22T11:49:33.802Z,25.36
2022-08-22T11:52:24.220Z,25.53
2022-08-22T11:55:09.249Z,25.73
2022-08-22T11:57:45.100Z,25.46
2022-08-22T12:00:34.600Z,25.39
2022-08-22T12:03:41.826Z,25.30
2022-08-22T12:06:29.275Z,25.24
2022-08-22T12:09:20.537Z,25.50
2022-08-22T12:12:26.006Z,25.57
2022-08-22T12:15:00.319Z,25.33
2022-08-22T12:18:05.898Z,25.18
2022-08-22T12:21:13.288Z,25.10
2022-08-22T12:23:53.571Z,24.78
2022-08-22T12:26:33.100Z,24.81
2022-08-22T12:29:39.981Z,24.65
2022-08-22T12:32:34.960Z,24.63
2022-08-22T12:35:13.789Z,24.75
2022-08-22T12:38:27.960Z,24.69
2022-08-22T12:41:14.433Z,24.68
2022-08-22T12:44:21.737Z,24.75
2022-08-22T12:47:24.995Z,24.86
2022-08-22T12:50:02.256Z,24.84
2022-08-22T12:53:07.607Z,24.67
2022-08-22T12:56:04.982Z,24.88
2022-08-22T12:59:12.027Z,25.13
2022-08-22T13:01:44.936Z,25.19
2022-08-22T13:04:29.756Z,25.33
2022-08-22T13:07:02.149Z,25.20
2022-08-22T13:09:36.946Z,25.21
2022-08-22T13:12:25.314Z,25.32
2022-08-22T13:15:00.089Z,25.48
2022-08-22T13:17:29.403Z,25.28
2022-08-22T13:20:11.428Z,25.10
2022-08-22T13:22:45.681Z,25.22
2022-08-22T13:25:28.364Z,25.26
2022-08-22T13:28:00.175Z,25.23
2022-08-22T13:30:37.705Z,25.25
2022-08-22T13:33:11.260Z,25.38
2022-08-22T13:35:52.427Z,25.39
2022-08-22T13:38:33.459Z,25.54
2022-08-22T13:41:04.015Z,25.43
2022-08-22T13:43:54.587Z,25.27
2022-08-22T13:46:28.077Z,25.18
2022-08-22T13:49:01.355Z,25.43
2022-08-22T13:52:01.612Z,25.59
2022-08-22T13:54:55.029Z,25.52
2022-08-22T13:57:43.860Z,25.49
2022-08-22T14:00:29.292Z,25.62
2022-08-22T14:03:11.330Z,25.62
2022-08-22T14:05:44.707Z,25.80
2022-08-22T14:08:18.768Z,25.59
2022-08-22T14:10:58.011Z,25.64
2022-08-22T14:13:41.200Z,25.81
2022-08-22T14:16:32.976Z,25.69
2022-08-22T14:19:10.596Z,25.64
2022-08-22T14:22:07.273Z,25.51
2022-08-22T14:24:55.793Z,25.17
2022-08-22T14:27:37.065Z,24.86
2022-08-22T14:30:18.726Z,24.49
2022-08-22T14:32:59.327Z,24.40
2022-08-22T14:35:35.382Z,24.33
2022-08-22T14:38:46.291Z,24.07
2022-08-22T14:41:19.820Z,24.16
2022-08-22T14:43:56.969Z,24.01
2022-08-22T14:46:49.493Z,24.19
2022-08-22T14:49:28.653Z,24.30
2022-08-22T14:52:19.438Z,24.17
2022-08-22T14:54:48.597Z,23.98
2022-08-22T14:57:21.188Z,23.99
2022-08-22T14:59:52.356Z,23.71
2022-08-22T15:02:31.480Z,23.68
2022-08-22T15:05:12.852Z,23.36
2022-08-22T15:07:41.755Z,23.29
2022-08-22T15:10:42.206Z,23.24
2022-08-22T15:13:11.267Z,23.20
2022-08-22T15:15:54.191Z,23.15
2022-08-22T15:18:30.543Z,23.19
2022-08-22T15:21:03.561Z,23.46
2022-08-22T15:23:45.069Z,23.51
2022-08-22T15:26:28.717Z,23.26
2022-08-22T15:29:05.295Z,23.08
2022-08-22T15:31:36.135Z,22.89
2022-08-22T15:34:19.867Z,22.73
2022-08-22T15:37:20.142Z,22.69
2022-08-22T15:40:02.923Z,22.65
2022-08-22T15:42:48.904Z,22.36
2022-08-22T15:45:34.843Z,22.14
2022-08-22T15:48:23.786Z,22.11
2022-08-22T15:51:02.768Z,21.96
2022-08-22T15:53:59.751Z,22.05
2022-08-22T15:56:38.944Z,22.01
2022-08-22T15:59:26.510Z,22.10
2022-08-22T16:02:08.674Z,22.03
2022-08-22T16:04:52.848Z,22.05
2022-08-22T16:07:27.598Z,21.95
2022-08-22T16:09:59.540Z,21.91
2022-08-22T16:12:41.503Z,21.91
2022-08-22T16:15:47.051Z,21.84
2022-08-22T16:18:47.580Z,21.91
2022-08-22T16:21:17.454Z,21.83
2022-08-22T16:23:51.884Z,21.88
2022-08-22T16:26:21.749Z,21.87
2022-08-22T16:28:58.617Z,21.75
2022-08-22T16:31:37.959Z,21.65
2022-08-22T16:34:18.575Z,21.63
2022-08-22T16:37:08.943Z,21.28
2022-08-22T16:40:14.452Z,21.32
2022-08-22T16:43:09.482Z,21.34
2022-08-22T16:45:45.130Z,21.04
2022-08-22T16:48:26.729Z,20.92
2022-08-22T16:51:22.283Z,20.81
2022-08-22T16:54:12.970Z,20.85
2022-08-22T16:57:05.792Z,20.75
2022-08-22T16:59:43.186Z,20.61
2022-08-22T17:02:50.445Z,20.28
2022-08-22T17:05:49.746Z,20.05
2022-08-22T17:08:36.332Z,19.65
2022-08-22T17:11:25.868Z,19.40
2022-08-22T17:14:12.454Z,19.33
2022-08-22T17:16:54.116Z,19.33
2022-08-22T17:19:57.331Z,19.23
2022-08-22T17:22:37.986Z,19.19
2022-08-22T17:25:12.358Z,19.27
2022-08-22T17:27:45.033Z,19.24
2022-08-22T17:30:20.660Z,19.17
2022-08-22T17:33:09.273Z,19.20
2022-08-22T17:35:44.133Z,19.26
2022-08-22T17:38:32.013Z,19.18
2022-08-22T17:41:22.581Z,19.15
2022-08-22T17:44:09.770Z,19.13
2022-08-22T17:46:56.420Z,19.04
2022-08-22T17:49:38.964Z,18.99
2022-08-22T17:52:18.424Z,18.99
2022-08-22T17:55:01.828Z,18.92
2022-08-22T17:57:50.538Z,18.85
2022-08-22T18:00:30.764Z,18.72
2022-08-22T18:03:05.978Z,18.77
2022-08-22T18:05:39.911Z,18.70
2022-08-22T18:11:25.344Z,18.62
2022-08-22T18:14:05.025Z,18.58
2022-08-22T18:16:43.670Z,18.56
2022-08-22T18:19:21.849Z,18.59
2022-08-22T18:21:54.682Z,18.48
2022-08-22T18:24:33.320Z,18.50
2022-08-22T18:27:30.045Z,18.55
2022-08-22T18:30:20.593Z,18.52
2022-08-22T18:33:06.079Z,18.49
2022-08-22T18:35:49.921Z,18.51
2022-08-22T18:38:30.161Z,18.61
2022-08-22T18:41:31.463Z,18.56
2022-08-22T18:44:00.105Z,18.62
2022-08-22T18:46:37.481Z,18.65
2022-08-22T18:49:23.946Z,18.73
2022-08-22T18:52:13.917Z,18.82
2022-08-22T18:55:04.146Z,18.85
2022-08-22T18:58:10.709Z,18.91
2022-08-22T19:01:09.555Z,18.91
2022-08-22T19:03:47.164Z,18.95
2022-08-22T19:06:52.261Z,18.85
2022-08-22T19:09:58.588Z,18.89
2022-08-22T19:12:45.018Z,18.83
2022-08-22T19:15:55.349Z,18.82
2022-08-22T19:18:36.331Z,18.84
2022-08-22T19:21:38.054Z,18.82
2022-08-22T19:24:30.883Z,18.75
2022-08-22T19:27:12.381Z,18.81
2022-08-22T19:29:41.632Z,18.73
2022-08-22T19:32:30.606Z,18.67
2022-08-22T19:35:19.923Z,18.70
2022-08-22T19:37:54.168Z,18.64
2022-08-22T19:40:47.539Z,18.63
2022-08-22T19:43:38.272Z,18.66
2022-08-22T19:46:12.086Z,18.71
2022-08-22T19:48:48.642Z,18.83
2022-08-22T19:51:22.426Z,18.89
2022-08-22T19:54:06.409Z,18.81
2022-08-22T19:56:53.235Z,18.87
2022-08-22T20:00:06.821Z,18.90
2022-08-22T20:03:07.881Z,18.92
2022-08-22T20:05:56.956Z,18.94
2022-08-22T20:08:54.141Z,18.93
2022-08-22T20:11:47.478Z,18.87
2022-08-22T20:14:30.529Z,18.91
2022-08-22T20:17:09.478Z,18.80
2022-08-22T20:20:16.447Z,18.79
2022-08-22T20:22:59.568Z,18.79
2022-08-22T20:25:49.314Z,18.72
2022-08-22T20:28:30.029Z,18.61
2022-08-22T20:31:01.242Z,18.60
2022-08-22T20:33:36.436Z,18.60
2022-08-22T20:36:16.729Z,18.58
2022-08-22T20:39:11.048Z,18.60
2022-08-22T20:41:43.081Z,18.60
2022-08-22T20:44:23.180Z,18.59
2022-08-22T20:46:53.384Z,18.56
2022-08-22T20:49:30.462Z,18.51
2022-08-22T20:52:11.778Z,18.51
2022-08-22T20:54:41.187Z,18.45
2022-08-22T20:57:19.489Z,18.40
2022-08-22T20:59:58.601Z,18.37
2022-08-22T21:02:39.412Z,18.42
2022-08-22T21:05:18.753Z,18.43
2022-08-22T21:08:06.598Z,18.46
2022-08-22T21:10:57.195Z,18.53
2022-08-22T21:13:27.333Z,18.49
2022-08-22T21:16:02.807Z,18.38
2022-08-22T21:18:59.169Z,18.40
2022-08-22T21:21:33.366Z,18.45
2022-08-22T21:24:05.666Z,18.36
2022-08-22T21:26:40.824Z,18.40
2022-08-22T21:29:22.487Z,18.44
2022-08-22T21:31:59.413Z,18.40
2022-08-22T21:34:43.671Z,18.37
2022-08-22T21:37:22.897Z,18.30
2022-08-22T21:39:56.567Z,18.27
2022-08-22T21:42:35.231Z,18.28
2022-08-22T21:45:08.090Z,18.28
2022-08-22T21:47:40.662Z,18.31
2022-08-22T21:50:20.804Z,18.33
2022-08-22T21:52:55.906Z,18.33
2022-08-22T21:55:30.165Z,18.30
2022-08-22T21:58:35.947Z,18.39
2022-08-22T22:01:29.121Z,18.42
2022-08-22T22:03:59.196Z,18.48
2022-08-22T22:06:27.842Z,18.56
2022-08-22T22:08:56.152Z,18.61
2022-08-22T22:11:25.126Z,18.59
2022-08-22T22:13:53.775Z,18.61
2022-08-22T22:16:26.478Z,18.60
2022-08-22T22:18:55.561Z,18.59
2022-08-22T22:21:23.600Z,18.60
2022-08-22T22:23:52.650Z,18.63
2022-08-22T22:26:21.394Z,18.55
2022-08-22T22:28:50.362Z,18.60
2022-08-22T22:31:19.117Z,18.56
2022-08-22T22:33:47.879Z,18.49
2022-08-22T22:36:25.567Z,18.39
2022-08-22T22:38:55.138Z,18.46
2022-08-22T22:41:25.617Z,18.51
2022-08-22T22:43:55.181Z,18.53
2022-08-22T22:46:24.019Z,18.52
2022-08-22T22:48:52.633Z,18.59
2022-08-22T22:51:21.420Z,18.46
2022-08-22T22:53:50.004Z,18.46
2022-08-22T22:56:21.480Z,18.40
2022-08-22T22:59:01.133Z,18.31
2022-08-22T23:02:00.457Z,18.19
2022-08-22T23:04:29.938Z,18.19
2022-08-22T23:06:59.174Z,18.24
2022-08-22T23:09:38.469Z,18.31
2022-08-22T23:12:14.825Z,18.32
2022-08-22T23:14:43.164Z,18.33
2022-08-22T23:17:11.432Z,18.34
2022-08-22T23:19:40.495Z,18.30
2022-08-22T23:22:09.450Z,18.23
2022-08-22T23:24:39.217Z,18.21
2022-08-22T23:27:09.610Z,18.19
2022-08-22T23:29:41.016Z,18.21
2022-08-22T23:32:12.529Z,18.23
2022-08-22T23:34:45.857Z,18.21
2022-08-22T23:37:18.248Z,18.20
2022-08-22T23:39:47.345Z,18.28
2022-08-22T23:42:18.132Z,18.31
2022-08-22T23:44:46.812Z,18.29
2022-08-22T23:47:15.659Z,18.27
2022-08-22T23:49:44.529Z,18.25
2022-08-22T23:52:14.100Z,18.31
2022-08-22T23:54:42.407Z,18.34
2022-08-22T23:57:12.087Z,18.23
2022-08-22T23:59:46.231Z,18.28
